Time;durP1;ratioP1;P1;durP2;ratioP2;P2;SDS_P1;SDS_P2;PMS_P1;PMS_P2;Temp;Humidity;BMP_temperature;BMP_pressure;BME280_temperature;BME280_humidity;BME280_pressure;Samples;Min_cycle;Max_cycle;Signal;HPM_P1;HPM_P2
2021/04/23 00:00:19;;;;;;;9.07;4.57;;;12.70;92.20;;;12.45;55.73;101757.66;4089634;29;20075;-70
2021/04/23 00:02:20;;;;;;;9.05;4.78;;;12.70;91.70;;;12.27;56.75;101751.44;4089735;29;20119;-70
2021/04/23 00:04:21;;;;;;;6.93;4.38;;;12.60;92.10;;;12.23;57.54;101755.34;4104248;29;20031;-70
2021/04/23 00:06:34;;;;;;;8.32;3.92;;;12.50;92.60;;;12.31;55.40;101745.72;4088317;29;20380;-70
2021/04/23 00:08:36;;;;;;;7.90;4.38;;;12.40;91.80;;;12.21;57.19;101751.00;4104138;29;20019;-70
2021/04/23 00:10:37;;;;;;;9.98;4.32;;;12.50;92.40;;;12.31;56.17;101769.53;4103973;29;20134;-70
2021/04/23 00:12:38;;;;;;;7.38;4.55;;;12.50;91.90;;;12.20;56.63;101765.25;4089514;29;20023;-70
2021/04/23 00:14:48;;;;;;;9.60;4.40;;;12.40;92.00;;;12.17;56.78;101760.22;4089533;29;20096;-70
2021/04/23 00:16:51;;;;;;;10.90;4.85;;;12.40;92.20;;;12.09;56.57;101749.53;4089489;29;20114;-70
2021/04/23 00:18:52;;;;;;;7.53;4.68;;;12.30;91.90;;;12.14;56.80;101759.66;4089460;29;20480;-70
2021/04/23 00:20:54;;;;;;;10.52;5.20;;;12.20;92.10;;;11.97;56.24;101741.88;4089263;29;20495;-70
2021/04/23 00:23:00;;;;;;;10.18;5.35;;;12.20;91.70;;;12.05;56.68;101742.00;4103966;29;20125;-70
2021/04/23 00:25:04;;;;;;;8.93;4.82;;;12.20;92.10;;;11.88;57.13;101746.22;4089080;29;20032;-70
2021/04/23 00:27:06;;;;;;;9.68;4.40;;;12.10;92.10;;;11.92;56.13;101742.28;4089402;29;20502;-70
2021/04/23 00:29:08;;;;;;;9.88;4.55;;;12.20;91.70;;;11.80;56.36;101738.13;4089046;29;20118;-70
2021/04/23 00:31:10;;;;;;;8.60;4.20;;;12.20;91.70;;;11.79;56.69;101735.63;4103977;29;20034;-70
2021/04/23 00:33:11;;;;;;;8.57;4.50;;;12.10;91.80;;;11.89;56.52;101739.94;4089212;29;20166;-70
2021/04/23 00:35:13;;;;;;;10.73;4.90;;;12.10;91.90;;;11.78;56.30;101720.72;4103889;29;20031;-70
2021/04/23 00:37:14;;;;;;;6.60;4.47;;;12.00;91.90;;;11.65;56.02;101726.25;4088998;29;20114;-70
2021/04/23 00:39:15;;;;;;;8.85;4.82;;;11.90;91.50;;;11.87;56.08;101741.88;4088919;29;20119;-70
2021/04/23 00:41:26;;;;;;;8.82;4.18;;;12.00;91.70;;;11.91;55.85;101739.81;4089026;29;20027;-70
2021/04/23 00:43:31;;;;;;;9.65;4.70;;;11.90;91.60;;;11.67;56.26;101734.91;4088708;29;20060;-70
2021/04/23 00:45:33;;;;;;;11.30;4.90;;;11.90;91.50;;;11.72;56.16;101731.88;4073317;29;20036;-70
2021/04/23 00:47:34;;;;;;;7.70;4.40;;;11.90;91.70;;;11.62;56.59;101734.47;4073300;29;20031;-70
2021/04/23 00:49:35;;;;;;;11.80;4.68;;;11.80;91.80;;;11.71;56.08;101733.66;4073318;29;20024;-70
2021/04/23 00:51:54;;;;;;;12.38;4.90;;;11.80;91.70;;;11.64;55.62;101730.75;4076762;29;20071;-70
2021/04/23 00:53:57;;;;;;;13.45;4.80;;;11.80;91.50;;;11.59;55.99;101727.66;4078554;29;20032;-70
2021/04/23 00:56:01;;;;;;;7.25;3.95;;;11.80;91.60;;;11.59;55.99;101734.75;4088491;29;20043;-70
2021/04/23 00:58:13;;;;;;;9.07;5.18;;;11.70;91.60;;;11.55;56.11;101728.91;4088876;29;20118;-70
2021/04/23 01:00:15;;;;;;;11.02;4.85;;;11.70;91.50;;;11.43;56.65;101737.09;4088996;29;20032;-70
2021/04/23 01:02:16;;;;;;;7.95;4.32;;;11.60;91.70;;;11.41;55.94;101712.66;4088998;29;20023;-70
2021/04/23 01:04:20;;;;;;;10.60;4.65;;;11.60;91.50;;;11.46;56.97;101726.25;4103444;29;20537;-70
2021/04/23 01:06:28;;;;;;;7.75;4.20;;;11.60;92.10;;;11.27;56.01;101716.50;4103409;29;20452;-70
2021/04/23 01:08:29;;;;;;;10.50;4.65;;;11.50;91.40;;;11.32;56.32;101730.13;4088820;29;20051;-70
2021/04/23 01:10:32;;;;;;;9.02;4.68;;;11.50;91.50;;;11.45;55.29;101721.94;4088483;29;20055;-70
2021/04/23 01:12:33;;;;;;;12.00;4.85;;;11.50;91.10;;;11.34;55.43;101724.72;4088707;29;20031;-70
2021/04/23 01:14:34;;;;;;;9.77;4.95;;;11.50;91.10;;;11.22;55.95;101709.97;4088536;29;20566;-70
2021/04/23 01:16:35;;;;;;;10.15;5.45;;;11.40;91.50;;;11.36;55.20;101728.88;4087275;29;20028;-70
2021/04/23 01:18:38;;;;;;;9.80;4.10;;;11.50;91.20;;;11.25;55.80;101722.91;4088657;29;20028;-70
2021/04/23 01:20:39;;;;;;;7.60;3.85;;;11.30;91.30;;;11.17;55.40;101717.47;4088558;29;20031;-70
2021/04/23 01:22:40;;;;;;;9.75;4.05;;;11.40;91.00;;;11.20;55.41;101718.00;4088362;29;20107;-70
2021/04/23 01:24:41;;;;;;;10.48;4.05;;;11.40;90.90;;;11.14;55.33;101709.81;4088388;29;20533;-70
2021/04/23 01:26:47;;;;;;;11.88;4.50;;;11.40;90.90;;;11.30;54.48;101723.31;4088575;29;20102;-70
2021/04/23 01:28:52;;;;;;;9.52;4.03;;;11.30;90.70;;;11.15;55.22;101708.81;4088451;29;20087;-70
2021/04/23 01:30:53;;;;;;;10.15;4.10;;;11.40;91.00;;;11.23;54.90;101719.56;4102972;29;20557;-70
2021/04/23 01:32:54;;;;;;;7.40;4.20;;;11.30;90.70;;;11.14;55.66;101720.38;4103206;29;20078;-70
2021/04/23 01:34:55;;;;;;;9.48;4.22;;;11.30;91.10;;;11.11;55.30;101722.31;4088469;29;20119;-70
2021/04/23 01:36:58;;;;;;;8.48;4.05;;;11.20;91.00;;;11.11;54.90;101726.75;4088295;29;20039;-70
2021/04/23 01:39:00;;;;;;;11.63;5.03;;;11.20;90.90;;;11.20;54.95;101714.56;4088231;29;20055;-70
2021/04/23 01:41:01;;;;;;;10.25;5.20;;;11.30;90.80;;;11.11;54.46;101716.19;4088095;29;20036;-70
2021/04/23 01:43:03;;;;;;;6.47;4.60;;;11.30;90.60;;;10.95;54.82;101711.44;4088311;29;20043;-70
2021/04/23 01:45:09;;;;;;;7.30;4.65;;;11.20;90.50;;;11.03;55.14;101714.22;4074674;29;20115;-70
2021/04/23 01:47:10;;;;;;;6.68;3.95;;;11.10;90.80;;;10.96;54.46;101715.72;4072678;29;20028;-70
2021/04/23 01:49:15;;;;;;;9.18;4.72;;;11.10;90.60;;;10.89;54.91;101704.06;4087135;29;20579;-70
2021/04/23 01:51:16;;;;;;;7.38;4.40;;;11.10;90.70;;;10.96;55.01;101713.09;4076006;29;20028;-70
2021/04/23 01:53:18;;;;;;;12.05;3.97;;;11.10;90.70;;;10.90;54.86;101711.00;4085638;29;20071;-70
2021/04/23 01:55:25;;;;;;;11.38;4.57;;;11.00;90.60;;;10.99;55.04;101712.81;4102720;29;20062;-70
2021/04/23 01:57:27;;;;;;;9.93;4.13;;;11.00;90.70;;;10.88;54.63;101715.56;4103013;29;20031;-70
2021/04/23 01:59:29;;;;;;;9.45;4.40;;;11.10;90.70;;;10.93;55.13;101713.34;4086782;29;20034;-70
2021/04/23 02:01:31;;;;;;;10.57;4.72;;;11.00;90.70;;;10.91;54.51;101704.75;4087232;29;20036;-70
2021/04/23 02:03:32;;;;;;;10.05;4.30;;;11.00;90.50;;;10.83;54.74;101716.94;4102864;29;20038;-70
2021/04/23 02:05:35;;;;;;;6.30;3.80;;;11.00;90.40;;;10.78;54.42;101704.13;4088090;29;20036;-70
2021/04/23 02:07:36;;;;;;;11.75;4.63;;;11.00;90.50;;;10.77;54.23;101706.94;4088064;29;20111;-70
2021/04/23 02:09:37;;;;;;;9.00;4.07;;;10.90;90.20;;;10.71;54.77;101708.31;4087681;29;20491;-70
2021/04/23 02:11:41;;;;;;;12.75;4.55;;;11.00;90.50;;;10.77;55.08;101705.13;4102823;29;20032;-70
2021/04/23 02:13:46;;;;;;;9.30;4.28;;;10.90;90.70;;;10.81;54.66;101706.50;4088209;29;20088;-70
2021/04/23 02:15:47;;;;;;;10.48;5.10;;;10.90;90.60;;;10.81;54.91;101718.91;4088023;29;20515;-70
2021/04/23 02:17:48;;;;;;;11.10;5.75;;;10.90;90.40;;;10.80;54.03;101712.78;4087852;29;20031;-70
2021/04/23 02:19:49;;;;;;;9.05;4.38;;;10.90;90.30;;;10.79;54.14;101715.53;4088129;29;20027;-70
2021/04/23 02:21:51;;;;;;;11.18;4.70;;;10.90;90.20;;;10.65;54.22;101711.47;4087939;29;20380;-70
2021/04/23 02:23:52;;;;;;;9.80;3.75;;;10.80;90.30;;;10.70;54.29;101719.81;4087857;29;20060;-70
2021/04/23 02:25:55;;;;;;;6.80;3.35;;;10.80;90.20;;;10.62;54.31;101702.97;4087391;29;20063;-70
2021/04/23 02:27:57;;;;;;;10.77;3.72;;;10.90;90.10;;;10.64;54.64;101715.06;4087968;29;20115;-70
2021/04/23 02:29:58;;;;;;;10.95;3.67;;;10.80;90.20;;;10.52;54.91;101709.03;4087896;29;20053;-70
2021/04/23 02:31:59;;;;;;;13.98;3.83;;;10.80;90.30;;;10.59;54.86;101709.38;4087801;29;20038;-70
2021/04/23 02:34:05;;;;;;;8.80;4.68;;;10.80;90.30;;;10.53;54.88;101709.88;4087789;29;20028;-70
2021/04/23 02:36:07;;;;;;;8.00;3.85;;;10.70;90.30;;;10.35;55.04;101701.75;4087946;29;20031;-70
2021/04/23 02:38:09;;;;;;;8.95;3.67;;;10.80;90.20;;;10.47;54.72;101705.13;4087888;29;20046;-70
2021/04/23 02:40:14;;;;;;;11.95;4.35;;;10.70;90.30;;;10.39;55.11;101697.88;4087613;29;20498;-70
2021/04/23 02:42:15;;;;;;;7.85;4.10;;;10.70;90.30;;;10.39;54.51;101702.34;4087830;29;20039;-70
2021/04/23 02:44:17;;;;;;;7.97;4.53;;;10.70;90.20;;;10.40;55.03;101711.91;4080648;29;20527;-70
2021/04/23 02:46:21;;;;;;;7.32;3.50;;;10.60;90.10;;;10.36;55.14;101710.50;4081043;29;20060;-70
2021/04/23 02:48:25;;;;;;;8.27;3.33;;;10.70;90.20;;;10.34;54.88;101710.63;4087753;29;20495;-70
2021/04/23 02:50:29;;;;;;;9.70;3.42;;;10.60;90.30;;;10.35;54.75;101714.09;4080541;29;20084;-70
2021/04/23 02:52:30;;;;;;;10.20;4.10;;;10.60;90.30;;;10.17;55.95;101720.94;4072030;29;20035;-70
2021/04/23 02:54:31;;;;;;;8.23;3.47;;;10.50;90.70;;;10.25;55.99;101715.84;4071703;29;20032;-70
2021/04/23 02:56:32;;;;;;;18.00;4.75;;;10.40;90.90;;;10.13;55.64;101707.16;4072075;29;20055;-70
2021/04/23 02:58:34;;;;;;;10.43;4.07;;;10.40;90.40;;;10.18;56.17;101705.00;4075215;29;20358;-70
2021/04/23 03:00:41;;;;;;;9.75;4.70;;;10.30;90.80;;;10.23;55.61;101712.50;4087871;29;20546;-70
2021/04/23 03:02:42;;;;;;;8.73;4.43;;;10.40;90.80;;;10.29;55.24;101711.97;4087596;29;20032;-70
2021/04/23 03:04:43;;;;;;;10.00;3.75;;;10.40;90.50;;;10.30;55.32;101711.03;4087415;29;20174;-70
2021/04/23 03:06:45;;;;;;;9.30;3.95;;;10.40;90.70;;;10.29;54.99;101707.56;4087726;29;20153;-70
2021/04/23 03:08:46;;;;;;;8.38;4.82;;;10.40;90.40;;;10.17;56.03;101699.84;4102352;29;20076;-70
2021/04/23 03:10:59;;;;;;;8.38;3.90;;;10.30;90.80;;;10.27;55.03;101706.00;4101977;29;20091;-70
2021/04/23 03:13:07;;;;;;;8.32;4.15;;;10.30;90.50;;;10.17;55.55;101707.75;4088096;29;20024;-70
2021/04/23 03:15:09;;;;;;;9.88;3.92;;;10.30;90.50;;;10.14;55.23;101708.84;4089247;29;20039;-70
2021/04/23 03:17:10;;;;;;;7.75;3.90;;;10.30;90.50;;;10.21;55.19;101693.34;4090389;29;20123;-70
2021/04/23 03:19:18;;;;;;;9.40;4.32;;;10.30;90.50;;;10.24;54.23;101693.94;4088997;29;20032;-70
2021/04/23 03:21:24;;;;;;;9.23;3.63;;;10.40;90.30;;;10.10;55.11;101702.13;4090348;29;20032;-70
2021/04/23 03:23:26;;;;;;;13.25;3.95;;;10.40;90.30;;;10.15;55.20;101704.41;4090352;29;20036;-70
2021/04/23 03:25:32;;;;;;;8.93;4.05;;;10.30;90.30;;;10.09;55.79;101703.09;4090014;29;20032;-70
2021/04/23 03:27:33;;;;;;;9.60;4.05;;;10.30;90.60;;;10.16;55.01;101706.91;4090108;29;20028;-70
2021/04/23 03:29:34;;;;;;;10.90;4.05;;;10.30;90.70;;;10.09;54.94;101707.53;4090457;29;20455;-70
2021/04/23 03:31:36;;;;;;;13.02;4.45;;;10.20;90.30;;;9.94;55.37;101701.75;4090373;29;20475;-70
2021/04/23 03:33:38;;;;;;;11.40;4.32;;;10.20;90.30;;;9.94;56.75;101689.41;4090072;29;20047;-70
2021/04/23 03:35:41;;;;;;;6.28;3.60;;;10.20;90.80;;;9.92;55.87;101701.88;4104752;29;20042;-70
2021/04/23 03:37:45;;;;;;;9.07;4.50;;;10.10;90.70;;;9.94;56.28;101705.22;4090288;29;20107;-70
2021/04/23 03:39:46;;;;;;;5.38;2.90;;;10.10;90.70;;;9.84;56.17;101696.41;4090017;29;20110;-70
2021/04/23 03:41:47;;;;;;;11.13;4.65;;;10.10;90.90;;;9.88;56.11;101702.25;4090130;29;20384;-70
2021/04/23 03:43:48;;;;;;;10.77;3.63;;;10.10;90.80;;;9.87;55.55;101697.94;4087142;29;20091;-70
2021/04/23 03:45:51;;;;;;;8.23;3.83;;;10.00;90.70;;;9.93;55.25;101698.28;4074303;29;20032;-70
2021/04/23 03:47:53;;;;;;;8.05;3.75;;;10.10;90.70;;;9.82;55.61;101695.72;4074270;29;20476;-70
2021/04/23 03:49:54;;;;;;;10.15;3.67;;;10.10;90.60;;;9.87;55.29;101701.44;4091815;29;20024;-70
2021/04/23 03:51:55;;;;;;;10.85;3.58;;;10.10;90.40;;;9.70;57.03;101699.38;4077189;29;20063;-70
2021/04/23 03:53:56;;;;;;;5.70;3.50;;;10.10;90.90;;;9.71;56.71;101687.00;4089966;29;20119;-70
2021/04/23 03:55:58;;;;;;;13.27;5.00;;;10.00;90.80;;;9.65;55.79;101683.09;4089695;29;20407;-70
2021/04/23 03:58:01;;;;;;;7.80;4.03;;;10.00;90.70;;;9.66;55.96;101705.00;4104414;29;20027;-70
2021/04/23 04:00:07;;;;;;;9.43;5.53;;;10.00;90.60;;;9.58;56.34;101683.72;4089825;29;20148;-70
2021/04/23 04:02:08;;;;;;;12.68;4.43;;;10.00;90.70;;;9.60;55.98;101687.91;4088325;29;20039;-70
2021/04/23 04:04:09;;;;;;;8.90;3.53;;;9.90;90.60;;;9.65;56.22;101690.16;4089675;29;20032;-70
2021/04/23 04:06:10;;;;;;;8.02;4.07;;;10.00;90.70;;;9.49;55.73;101689.75;4089552;29;20059;-70
2021/04/23 04:08:11;;;;;;;8.50;3.95;;;9.80;90.50;;;9.57;56.43;101698.69;4104463;29;20059;-70
2021/04/23 04:10:14;;;;;;;10.90;4.40;;;9.80;90.80;;;9.61;56.27;101696.66;4089518;29;20028;-70
2021/04/23 04:12:15;;;;;;;12.05;4.38;;;9.80;91.00;;;9.63;55.93;101687.66;4089780;29;20027;-70
2021/04/23 04:14:16;;;;;;;9.10;3.50;;;9.80;91.00;;;9.61;57.08;101686.13;4089491;29;20034;-70
2021/04/23 04:16:17;;;;;;;11.52;4.07;;;9.80;91.00;;;9.62;56.12;101688.59;4089624;29;20079;-70
2021/04/23 04:18:18;;;;;;;7.97;3.92;;;9.80;90.80;;;9.54;56.22;101671.75;4089573;29;20035;-70
2021/04/23 04:20:22;;;;;;;10.43;4.25;;;9.80;90.80;;;9.57;55.73;101688.16;4089515;29;20035;-70
2021/04/23 04:22:23;;;;;;;7.20;3.65;;;9.80;90.60;;;9.51;56.32;101685.19;4089370;29;20035;-70
2021/04/23 04:24:25;;;;;;;9.73;4.05;;;9.80;90.70;;;9.40;56.66;101680.81;4088757;29;20044;-70
2021/04/23 04:26:26;;;;;;;8.48;4.30;;;9.70;90.70;;;9.34;56.81;101676.88;4089272;29;20099;-70
2021/04/23 04:28:31;;;;;;;12.05;3.78;;;9.70;91.10;;;9.34;56.54;101686.59;4104175;29;20035;-70
2021/04/23 04:30:32;;;;;;;9.45;3.72;;;9.70;90.90;;;9.29;57.12;101692.19;4089602;29;20034;-69
2021/04/23 04:32:33;;;;;;;8.13;3.50;;;9.70;91.10;;;9.14;57.69;101675.00;4089382;29;20024;-70
2021/04/23 04:34:34;;;;;;;8.75;3.58;;;9.60;91.20;;;9.26;58.02;101705.63;4089253;29;20035;-70
2021/04/23 04:36:35;;;;;;;9.52;3.70;;;9.70;91.50;;;9.31;57.31;101702.63;4089288;29;20054;-70
2021/04/23 04:38:36;;;;;;;8.40;3.65;;;9.60;91.30;;;9.27;58.12;101695.94;4089087;29;20032;-70
2021/04/23 04:40:40;;;;;;;10.05;3.90;;;9.60;91.50;;;9.19;58.29;101687.81;4089008;29;20075;-70
2021/04/23 04:42:42;;;;;;;7.72;4.30;;;9.60;91.60;;;9.04;58.74;101697.78;4089181;29;20023;-70
2021/04/23 04:44:43;;;;;;;10.35;3.58;;;9.50;91.60;;;9.30;57.50;101690.41;4079450;29;20099;-70
2021/04/23 04:46:44;;;;;;;11.27;4.85;;;9.40;91.60;;;9.19;57.81;101686.03;4073356;29;20123;-70
2021/04/23 04:48:45;;;;;;;11.43;4.78;;;9.50;91.50;;;9.24;57.67;101696.16;4091165;29;20443;-70
2021/04/23 04:50:54;;;;;;;8.00;4.25;;;9.50;91.50;;;9.12;57.60;101702.44;4078933;29;20032;-70
2021/04/23 04:52:56;;;;;;;8.68;3.92;;;9.50;91.30;;;9.23;57.26;101708.50;4073310;29;20062;-70
2021/04/23 04:54:57;;;;;;;8.18;5.25;;;9.50;91.40;;;9.24;58.07;101701.44;4072880;29;20484;-70
2021/04/23 04:56:59;;;;;;;7.20;4.05;;;9.40;91.70;;;9.17;57.96;101698.47;4073304;29;20032;-70
2021/04/23 04:59:00;;;;;;;7.03;4.32;;;9.40;91.80;;;9.19;57.47;101711.50;4073099;29;20047;-70
2021/04/23 05:01:03;;;;;;;5.90;3.80;;;9.40;91.50;;;9.22;57.66;101706.84;4073125;29;20032;-70
2021/04/23 05:03:06;;;;;;;9.00;4.68;;;9.30;91.80;;;9.24;57.81;101704.91;4073076;29;20072;-70
2021/04/23 05:05:08;;;;;;;12.45;4.18;;;9.40;91.50;;;9.05;58.05;101699.44;4073138;29;20667;-70
2021/04/23 05:07:09;;;;;;;11.43;4.30;;;9.40;91.50;;;9.22;57.49;101703.38;4087457;29;20443;-70
2021/04/23 05:09:11;;;;;;;7.60;4.00;;;9.40;91.50;;;9.04;59.13;101697.78;4072751;29;20032;-70
2021/04/23 05:11:12;;;;;;;6.68;4.28;;;9.40;92.10;;;8.98;59.07;101697.44;4072934;29;20519;-70
2021/04/23 05:13:13;;;;;;;8.48;4.20;;;9.40;91.90;;;9.07;57.73;101696.69;4073064;29;20088;-70
2021/04/23 05:15:16;;;;;;;11.00;5.70;;;9.40;91.60;;;9.08;59.20;101712.34;4072979;29;20032;-70
2021/04/23 05:17:17;;;;;;;10.60;4.85;;;9.40;92.10;;;9.06;59.12;101716.91;4072800;29;20111;-70
2021/04/23 05:19:19;;;;;;;9.15;4.47;;;9.30;92.10;;;9.14;58.23;101714.50;4072724;29;20032;-69
2021/04/23 05:21:21;;;;;;;9.85;4.07;;;9.30;91.80;;;9.00;58.88;101698.13;4073107;29;20444;-70
2021/04/23 05:23:22;;;;;;;11.77;4.75;;;9.30;91.90;;;9.10;59.03;101705.19;4072672;29;20512;-70
2021/04/23 05:25:26;;;;;;;12.07;4.47;;;9.30;92.20;;;9.12;58.98;101694.53;4072474;29;20064;-70
2021/04/23 05:27:27;;;;;;;9.98;4.10;;;9.40;92.20;;;8.99;59.81;101701.75;4087381;29;20422;-70
2021/04/23 05:29:28;;;;;;;7.45;4.35;;;9.30;92.70;;;8.96;58.66;101704.63;4072729;29;20060;-69
2021/04/23 05:31:29;;;;;;;11.27;3.85;;;9.30;91.90;;;9.13;57.37;101702.31;4072695;29;20550;-69
2021/04/23 05:33:30;;;;;;;14.10;4.97;;;9.40;91.70;;;9.17;58.00;101711.63;4072635;29;20241;-70
2021/04/23 05:35:31;;;;;;;9.60;3.80;;;9.40;91.70;;;9.08;59.40;101712.34;4072554;29;20043;-70
2021/04/23 05:37:33;;;;;;;8.13;3.58;;;9.40;92.40;;;9.18;58.34;101715.09;4072602;29;20032;-70
2021/04/23 05:39:34;;;;;;;6.97;3.70;;;9.50;92.10;;;9.21;59.23;101717.47;4072390;29;20111;-69
2021/04/23 05:41:35;;;;;;;11.18;4.20;;;9.50;92.50;;;9.11;58.91;101717.38;4072467;29;20060;-70
2021/04/23 05:43:36;;;;;;;7.78;4.50;;;9.50;91.90;;;9.17;60.14;101724.78;4084923;29;20050;-71
2021/04/23 05:45:40;;;;;;;9.05;4.07;;;9.50;92.60;;;9.01;59.82;101729.63;4072584;29;20036;-71
2021/04/23 05:47:41;;;;;;;8.25;3.83;;;9.50;92.30;;;9.18;58.60;101728.25;4068565;29;20166;-70
2021/04/23 05:49:42;;;;;;;14.45;3.83;;;9.40;92.50;;;9.22;58.71;101724.44;4070274;29;20099;-71
2021/04/23 05:51:43;;;;;;;10.05;4.20;;;9.50;92.20;;;9.21;59.05;101722.75;4072069;29;20488;-69
2021/04/23 05:53:44;;;;;;;13.63;4.72;;;9.50;92.20;;;9.19;58.26;101711.50;4074035;29;20487;-70
2021/04/23 05:55:46;;;;;;;10.73;3.85;;;9.60;91.80;;;9.21;58.19;101725.38;4102057;29;20106;-70
2021/04/23 05:57:47;;;;;;;14.25;3.97;;;9.50;92.00;;;9.29;58.12;101728.22;4102268;29;20034;-70
2021/04/23 05:59:48;;;;;;;7.75;3.45;;;9.50;91.80;;;9.22;58.83;101729.69;4102811;29;20114;-70
2021/04/23 06:01:49;;;;;;;12.20;4.28;;;9.60;92.20;;;9.26;58.63;101731.94;4088187;29;20448;-70
2021/04/23 06:03:50;;;;;;;8.15;3.88;;;9.70;91.90;;;9.11;59.15;101721.81;4102405;29;20380;-71
2021/04/23 06:05:52;;;;;;;10.63;3.72;;;9.70;92.10;;;9.28;58.90;101743.22;4087811;29;20114;-70
2021/04/23 06:07:54;;;;;;;8.32;3.55;;;9.60;92.10;;;9.31;58.57;101727.16;4102585;29;20062;-70
2021/04/23 06:09:55;;;;;;;8.68;3.53;;;9.70;92.40;;;9.41;58.88;101743.03;4088081;29;20075;-70
2021/04/23 06:11:55;;;;;;;8.23;4.47;;;9.80;92.10;;;9.42;59.23;101747.34;4087966;29;20395;-70
2021/04/23 06:13:56;;;;;;;13.80;3.78;;;9.70;92.60;;;9.37;59.26;101739.00;4078910;29;20039;-70
2021/04/23 06:15:57;;;;;;;9.45;4.07;;;9.70;92.40;;;9.32;59.31;101731.44;4085983;29;20039;-71
2021/04/23 06:17:59;;;;;;;8.93;3.58;;;9.70;92.30;;;9.37;60.26;101737.19;4082572;29;20068;-71
2021/04/23 06:20:00;;;;;;;9.02;3.65;;;9.70;92.90;;;9.41;61.18;101746.50;4074033;29;20590;-71
2021/04/23 06:22:01;;;;;;;15.20;4.50;;;9.70;93.50;;;9.51;58.58;101724.69;4084560;29;20040;-71
2021/04/23 06:24:03;;;;;;;12.77;4.93;;;9.80;92.40;;;9.60;59.26;101737.09;4077498;29;20404;-71
2021/04/23 06:26:05;;;;;;;14.15;3.60;;;9.90;92.60;;;9.60;58.46;101751.13;4086348;29;20050;-70
2021/04/23 06:28:07;;;;;;;8.35;4.07;;;9.90;92.20;;;9.61;59.09;101744.06;4080280;29;20496;-72
2021/04/23 06:30:16;;;;;;;12.23;3.63;;;10.00;92.50;;;9.55;59.51;101742.78;4086222;29;20034;-72
2021/04/23 06:32:19;;;;;;;9.90;3.72;;;10.00;92.60;;;9.64;59.66;101749.91;4071076;29;20032;-72
2021/04/23 06:34:20;;;;;;;9.52;3.53;;;10.00;92.80;;;9.82;59.45;101753.69;4086050;29;20028;-71
2021/04/23 06:36:21;;;;;;;9.65;3.92;;;10.10;92.80;;;9.79;59.50;101746.03;4086259;29;20079;-71
2021/04/23 06:38:24;;;;;;;9.88;4.22;;;10.10;92.80;;;10.01;58.81;101763.50;4086366;29;20067;-71
2021/04/23 06:40:25;;;;;;;11.23;5.45;;;10.20;92.40;;;10.05;58.38;101762.31;4071451;29;20036;-72
2021/04/23 06:42:26;;;;;;;10.88;3.90;;;10.30;92.10;;;10.03;58.78;101753.69;4075861;29;20024;-72
2021/04/23 06:44:27;;;;;;;13.43;4.45;;;10.40;92.30;;;10.08;58.24;101758.56;4079664;29;20071;-71
2021/04/23 06:46:29;;;;;;;12.00;4.57;;;10.40;92.20;;;10.21;57.54;101754.84;4071651;29;20312;-70
2021/04/23 06:48:30;;;;;;;12.50;5.00;;;10.50;91.90;;;10.28;57.30;101757.78;4087779;29;20027;-70
2021/04/23 06:50:31;;;;;;;13.10;4.35;;;10.60;91.80;;;10.26;59.43;101764.97;4093325;29;20087;-70
2021/04/23 06:52:32;;;;;;;9.63;4.32;;;10.60;92.60;;;10.32;58.77;101761.84;4082259;29;20019;-71
2021/04/23 06:54:33;;;;;;;14.77;5.18;;;10.60;92.40;;;10.24;57.88;101759.00;4105176;29;20399;-71
2021/04/23 06:56:34;;;;;;;22.95;5.80;;;10.60;91.80;;;10.20;58.18;101757.59;4090521;29;20031;-71
2021/04/23 06:58:35;;;;;;;14.80;7.13;;;10.70;92.00;;;10.18;58.21;101735.78;4090729;29;20031;-70
2021/04/23 07:00:39;;;;;;;20.40;5.88;;;10.60;92.10;;;10.32;59.97;101754.75;4090623;29;20019;-70
2021/04/23 07:02:41;;;;;;;10.38;4.32;;;10.70;93.00;;;10.36;60.72;101761.44;4090577;29;20155;-70
2021/04/23 07:04:42;;;;;;;12.73;5.25;;;10.70;93.50;;;10.43;60.53;101756.47;4104909;29;20539;-71
2021/04/23 07:06:43;;;;;;;20.13;5.43;;;10.80;93.40;;;10.46;59.46;101767.59;4090572;29;20027;-71
2021/04/23 07:08:43;;;;;;;12.32;4.90;;;10.90;93.00;;;10.58;58.51;101760.44;4090533;29;20030;-71
2021/04/23 07:10:44;;;;;;;12.85;5.15;;;10.90;92.50;;;10.59;60.33;101761.28;4104735;29;20131;-71
2021/04/23 07:12:46;;;;;;;10.73;4.65;;;11.00;93.10;;;10.66;61.12;101757.16;4090280;29;20487;-71
2021/04/23 07:14:47;;;;;;;8.70;4.30;;;11.00;93.60;;;10.81;60.21;101766.41;4104934;29;20059;-70
2021/04/23 07:16:48;;;;;;;16.75;4.43;;;11.10;93.80;;;10.85;59.17;101770.44;4090467;29;20024;-70
2021/04/23 07:18:49;;;;;;;11.45;5.80;;;11.20;92.70;;;10.82;60.23;101774.19;4090495;29;20024;-71
2021/04/23 07:20:50;;;;;;;11.60;4.50;;;11.30;93.20;;;10.95;58.29;101768.69;4088817;29;20020;-71
2021/04/23 07:22:52;;;;;;;9.98;4.85;;;11.40;92.20;;;10.87;60.29;101753.50;4090392;29;20551;-70
2021/04/23 07:24:53;;;;;;;10.98;4.60;;;11.40;93.20;;;11.05;59.09;101765.09;4104696;29;20083;-71
2021/04/23 07:26:53;;;;;;;12.93;4.95;;;11.50;92.80;;;11.32;57.19;101763.66;4090216;29;20028;-71
2021/04/23 07:28:56;;;;;;;8.32;4.38;;;11.60;92.00;;;11.26;58.91;101757.06;4088755;29;20031;-71
2021/04/23 07:30:57;;;;;;;12.75;5.90;;;11.70;92.60;;;11.40;58.05;101775.22;4090172;29;20046;-71
2021/04/23 07:32:59;;;;;;;10.07;4.10;;;11.80;92.20;;;11.48;58.50;101777.16;4090080;29;20024;-71
2021/04/23 07:35:00;;;;;;;16.83;5.00;;;12.00;92.40;;;11.57;57.50;101771.88;4090053;29;20514;-70
2021/04/23 07:37:02;;;;;;;12.55;4.32;;;12.10;91.90;;;11.61;57.86;101773.28;4089879;29;20441;-70
2021/04/23 07:39:04;;;;;;;10.70;4.75;;;12.20;92.00;;;11.51;55.85;101763.66;4089864;29;20036;-70
2021/04/23 07:41:05;;;;;;;9.32;3.85;;;12.20;90.80;;;11.50;57.51;101765.47;4104831;29;20429;-70
2021/04/23 07:43:06;;;;;;;11.20;4.85;;;12.20;91.50;;;11.54;56.68;101766.03;4089675;29;20036;-70
2021/04/23 07:45:09;;;;;;;10.57;4.40;;;12.30;91.30;;;11.62;57.23;101763.53;4077339;29;20064;-71
2021/04/23 07:47:10;;;;;;;8.75;4.18;;;12.30;91.50;;;11.74;55.88;101757.19;4077602;29;20055;-71
2021/04/23 07:49:12;;;;;;;8.13;3.63;;;12.40;91.00;;;11.77;56.33;101764.03;4089903;29;20082;-71
2021/04/23 07:51:13;;;;;;;11.63;4.85;;;12.40;91.00;;;11.87;56.55;101763.03;4076454;29;20032;-71
2021/04/23 07:53:14;;;;;;;8.30;4.38;;;12.50;91.20;;;11.83;56.74;101764.28;4074096;29;20080;-71
2021/04/23 07:55:16;;;;;;;11.00;3.83;;;12.50;91.20;;;11.99;58.31;101761.91;4073626;29;20538;-71
2021/04/23 07:57:17;;;;;;;12.07;5.07;;;12.60;92.20;;;12.00;57.58;101765.41;4072526;29;20064;-70
2021/04/23 07:59:18;;;;;;;14.02;4.85;;;12.70;91.80;;;12.03;56.77;101762.47;4072433;29;20087;-70
2021/04/23 08:01:19;;;;;;;12.10;5.60;;;12.80;91.30;;;12.09;56.12;101768.03;4072500;29;20033;-71
2021/04/23 08:03:20;;;;;;;7.38;4.47;;;12.80;90.90;;;12.27;56.29;101765.50;4073700;29;20044;-71
2021/04/23 08:05:22;;;;;;;11.13;4.97;;;12.90;91.00;;;12.29;55.42;101773.28;4073737;29;20051;-70
2021/04/23 08:07:23;;;;;;;11.07;4.65;;;13.00;90.60;;;12.31;56.07;101768.69;4073894;29;20036;-71
2021/04/23 08:09:23;;;;;;;9.32;4.60;;;13.10;90.80;;;12.41;55.21;101780.09;4073522;29;20063;-71
2021/04/23 08:11:24;;;;;;;9.52;4.65;;;13.10;90.60;;;12.45;56.26;101766.44;4073806;29;20519;-70
2021/04/23 08:13:25;;;;;;;7.82;4.20;;;13.20;91.10;;;12.53;55.26;101758.63;4073865;29;20491;-71
2021/04/23 08:15:27;;;;;;;6.20;4.03;;;13.20;90.70;;;12.73;55.21;101768.16;4073846;29;20065;-71
2021/04/23 08:17:27;;;;;;;10.00;4.10;;;13.30;90.80;;;12.62;54.12;101762.22;4073473;29;20111;-71
2021/04/23 08:19:28;;;;;;;11.40;4.30;;;13.40;89.90;;;12.83;55.49;101762.84;4073389;29;20036;-71
2021/04/23 08:21:30;;;;;;;10.55;4.20;;;13.50;90.80;;;12.84;53.91;101767.16;4073396;29;20032;-71
2021/04/23 08:23:31;;;;;;;10.85;4.40;;;13.60;89.70;;;12.84;55.00;101769.81;4073634;29;20043;-70
2021/04/23 08:25:33;;;;;;;11.15;4.47;;;13.70;90.70;;;12.85;55.57;101771.47;4073092;29;20083;-70
2021/04/23 08:27:34;;;;;;;10.80;4.47;;;13.70;90.60;;;12.79;55.05;101769.38;4073324;29;20053;-73